Time;durP1;ratioP1;P1;durP2;ratioP2;P2;SDS_P1;SDS_P2;PMS_P1;PMS_P2;Temp;Humidity;BMP_temperature;BMP_pressure;BME280_temperature;BME280_humidity;BME280_pressure;Samples;Min_cycle;Max_cycle;Signal;HPM_P1;HPM_P2
2022/02/03 00:00:53;;;;;;;5.62;2.42;;;;;;;-0.43;77.02;100302.60;2152655;81;20991;-84
2022/02/03 00:04:05;;;;;;;6.28;2.58;;;;;;;-0.44;77.08;100296.55;2152183;81;21029;-80
2022/02/03 00:07:05;;;;;;;7.10;2.62;;;;;;;-0.46;77.09;100312.27;2150060;81;21031;-80
2022/02/03 00:23:51;;;;;;;8.73;3.10;;;;;;;-0.55;77.45;100338.90;2148762;81;21018;-80
2022/02/03 00:26:25;;;;;;;5.10;2.72;;;;;;;-0.55;77.50;100340.20;2146432;81;21018;-83
2022/02/03 00:29:55;;;;;;;5.70;2.52;;;;;;;-0.55;77.54;100350.62;2150641;81;21048;-82
2022/02/03 00:48:59;;;;;;;5.35;2.72;;;;;;;-0.49;77.82;100402.40;2156397;81;21025;-80
2022/02/03 00:52:00;;;;;;;7.47;3.60;;;;;;;-0.50;77.75;100409.86;2150105;81;21046;-80
2022/02/03 00:55:04;;;;;;;5.95;2.92;;;;;;;-0.59;77.91;100413.00;2154180;81;21623;-81
2022/02/03 00:58:07;;;;;;;7.03;2.95;;;;;;;-0.60;78.06;100411.30;2150297;81;21040;-80
2022/02/03 01:01:14;;;;;;;6.80;3.00;;;;;;;-0.55;78.17;100416.27;2122058;81;21030;-84
2022/02/03 01:04:17;;;;;;;7.45;2.83;;;;;;;-0.54;78.08;100417.94;2147137;81;21599;-80
2022/02/03 01:07:20;;;;;;;7.95;3.72;;;;;;;-0.54;77.96;100423.98;2149532;81;21536;-82
2022/02/03 01:10:28;;;;;;;9.40;3.92;;;;;;;-0.60;77.94;100413.91;2152523;81;21566;-80
2022/02/03 01:13:37;;;;;;;7.45;3.67;;;;;;;-0.62;78.03;100421.00;2155855;81;21046;-82
2022/02/03 01:17:01;;;;;;;8.08;3.72;;;;;;;-0.63;78.02;100424.52;2154510;80;21534;-81
2022/02/03 01:20:36;;;;;;;8.08;3.65;;;;;;;-0.69;77.80;100424.88;2148005;81;21020;-81
2022/02/03 01:33:42;;;;;;;12.15;3.60;;;;;;;-0.79;78.56;100421.97;2148963;81;21002;-81
2022/02/03 01:43:39;;;;;;;8.55;3.92;;;;;;;-0.85;78.81;100424.89;2150562;81;22407;-80
2022/02/03 01:47:27;;;;;;;7.00;3.42;;;;;;;-0.88;78.87;100438.56;2155203;81;21006;-82
2022/02/03 01:52:54;;;;;;;8.83;4.45;;;;;;;-0.91;78.98;100442.17;2098787;81;21037;-83
2022/02/03 01:56:06;;;;;;;7.97;4.03;;;;;;;-0.99;78.99;100450.41;2150513;81;21066;-80
2022/02/03 01:59:24;;;;;;;8.73;4.55;;;;;;;-1.06;78.99;100452.98;2146045;80;20967;-81
2022/02/03 02:02:30;;;;;;;11.10;4.28;;;;;;;-1.14;79.07;100447.36;2146486;81;21085;-80
2022/02/03 02:06:04;;;;;;;9.90;4.70;;;;;;;-1.15;79.20;100460.02;2151234;81;21049;-79
2022/02/03 02:09:29;;;;;;;9.63;3.98;;;;;;;-1.18;79.29;100465.39;2154162;81;21053;-81
2022/02/03 02:13:11;;;;;;;8.48;3.72;;;;;;;-1.22;79.33;100476.88;2156848;81;20998;-80
2022/02/03 02:16:33;;;;;;;11.22;4.50;;;;;;;-1.20;79.53;100469.36;2148287;81;21289;-81
2022/02/03 02:39:52;;;;;;;7.67;4.30;;;;;;;-1.27;79.76;100498.41;2022485;87;22372;-80
2022/02/03 02:43:17;;;;;;;10.72;4.58;;;;;;;-1.33;79.81;100498.27;2015661;87;21124;-81
2022/02/03 02:46:43;;;;;;;13.85;4.58;;;;;;;-1.38;79.85;100509.39;2148680;81;20998;-83
2022/02/03 02:49:51;;;;;;;10.25;4.92;;;;;;;-1.44;79.90;100513.62;2149976;81;21517;-80
2022/02/03 02:53:26;;;;;;;11.68;5.08;;;;;;;-1.49;79.92;100511.71;2149960;81;21435;-83
2022/02/03 03:00:23;;;;;;;12.45;4.62;;;;;;;-1.51;80.03;100530.03;2151711;81;21051;-85
2022/02/03 03:33:32;;;;;;;11.20;4.67;;;;;;;-1.34;81.06;100538.26;2147080;81;21005;-84
2022/02/03 03:36:30;;;;;;;16.35;5.50;;;;;;;-1.36;81.06;100540.92;2145919;81;22179;-82
2022/02/03 03:39:41;;;;;;;11.48;5.35;;;;;;;-1.36;81.16;100543.53;2148769;81;21000;-81
2022/02/03 03:42:42;;;;;;;10.58;5.00;;;;;;;-1.33;81.21;100545.61;2151948;81;21016;-81
2022/02/03 03:45:51;;;;;;;11.48;4.47;;;;;;;-1.31;81.29;100553.72;2147040;81;21037;-80
2022/02/03 03:49:03;;;;;;;11.40;5.17;;;;;;;-1.28;81.36;100565.27;2152681;81;21089;-80
2022/02/03 03:52:17;;;;;;;13.95;5.53;;;;;;;-1.26;81.55;100571.72;2147419;81;21053;-82
2022/02/03 04:34:07;;;;;;;14.07;5.22;;;;;;;-0.91;82.31;100562.84;2149254;81;21537;-80
2022/02/03 04:37:39;;;;;;;14.20;5.10;;;;;;;-0.86;82.43;100563.08;2137182;81;21014;-81
2022/02/03 04:44:29;;;;;;;10.93;5.03;;;;;;;-0.84;82.78;100563.38;2149937;81;21037;-82
2022/02/03 04:51:40;;;;;;;16.95;5.35;;;;;;;-0.81;83.02;100543.67;2148522;81;21042;-79
2022/02/03 04:55:23;;;;;;;14.75;5.22;;;;;;;-0.78;83.17;100553.92;2138815;81;21022;-78
2022/02/03 04:59:04;;;;;;;14.25;4.87;;;;;;;-0.72;83.38;100566.61;2142230;81;20972;-82
2022/02/03 05:02:18;;;;;;;13.60;4.67;;;;;;;-0.64;83.62;100572.72;2149980;81;21533;-82
2022/02/03 05:05:52;;;;;;;15.53;4.75;;;;;;;-0.58;83.91;100570.23;2144367;81;21046;-79
2022/02/03 05:09:48;;;;;;;16.00;5.45;;;;;;;-0.53;83.81;100576.88;2149631;81;21048;-79
2022/02/03 05:14:10;;;;;;;14.20;5.08;;;;;;;-0.49;83.92;100574.46;2147010;81;21485;-82
2022/02/03 05:17:13;;;;;;;16.45;5.72;;;;;;;-0.42;84.01;100581.50;2129883;81;21037;-81
2022/02/03 05:20:56;;;;;;;17.17;5.60;;;;;;;-0.37;84.05;100573.41;2142515;80;20999;-80
2022/02/03 05:51:48;;;;;;;10.40;5.87;;;;;;;-0.14;84.06;100600.36;2104735;81;21042;-80
2022/02/03 05:54:55;;;;;;;14.50;6.03;;;;;;;-0.12;84.08;100607.61;2143668;80;21532;-84
2022/02/03 06:13:43;;;;;;;18.70;7.63;;;;;;;0.02;84.31;100607.30;2146640;81;21041;-81
2022/02/03 06:16:58;;;;;;;29.25;12.93;;;;;;;0.02;84.17;100615.12;2150943;81;21118;-82
2022/02/03 06:23:07;;;;;;;16.90;5.87;;;;;;;0.02;84.10;100623.80;2147660;81;21494;-79
2022/02/03 06:29:27;;;;;;;18.62;6.47;;;;;;;0.08;84.08;100612.16;2147801;81;21039;-82
2022/02/03 06:32:28;;;;;;;16.85;6.37;;;;;;;0.08;83.95;100618.69;2145683;81;21766;-79
2022/02/03 06:35:29;;;;;;;17.10;6.20;;;;;;;0.07;83.87;100613.11;2145835;81;21017;-82
2022/02/03 06:38:33;;;;;;;28.95;8.93;;;;;;;0.10;83.89;100624.67;2148445;81;21009;-81
2022/02/03 06:41:36;;;;;;;26.23;9.63;;;;;;;0.14;83.88;100626.16;2144742;81;21000;-80
2022/02/03 06:44:51;;;;;;;28.25;11.75;;;;;;;0.16;83.74;100623.01;2148474;81;21010;-84
2022/02/03 06:48:00;;;;;;;22.37;7.80;;;;;;;0.23;83.89;100617.83;2149118;81;21552;-82
2022/02/03 06:51:06;;;;;;;20.20;7.28;;;;;;;0.24;83.69;100620.80;2149448;81;21062;-83
2022/02/03 06:54:06;;;;;;;15.40;5.75;;;;;;;0.23;83.69;100628.27;2151168;81;21074;-83
2022/02/03 06:57:10;;;;;;;16.95;7.03;;;;;;;0.21;83.64;100624.89;2154574;81;21041;-82
2022/02/03 07:00:19;;;;;;;16.82;6.28;;;;;;;0.20;83.65;100629.75;2148374;81;21036;-82
2022/02/03 07:03:18;;;;;;;17.55;5.90;;;;;;;0.16;83.64;100628.23;2149516;81;21048;-81
2022/02/03 07:06:17;;;;;;;20.85;6.67;;;;;;;0.18;83.68;100626.38;2148814;81;21046;-84
2022/02/03 07:09:18;;;;;;;20.35;6.90;;;;;;;0.16;83.65;100624.31;2150598;81;20992;-83
2022/02/03 07:12:21;;;;;;;20.30;6.47;;;;;;;0.18;83.71;100631.13;2156981;81;21001;-81
2022/02/03 07:15:23;;;;;;;18.00;7.20;;;;;;;0.15;83.68;100630.00;2152337;81;21852;-83
2022/02/03 07:18:24;;;;;;;16.90;6.55;;;;;;;0.15;83.77;100633.09;2145580;81;21002;-83
2022/02/03 07:21:25;;;;;;;23.12;6.85;;;;;;;0.23;83.84;100638.70;2151841;81;20986;-85
2022/02/03 07:24:26;;;;;;;21.30;6.12;;;;;;;0.27;83.79;100636.76;2145454;81;21042;-86
2022/02/03 07:27:29;;;;;;;18.62;7.25;;;;;;;0.29;83.80;100625.30;2147745;81;21003;-82
2022/02/03 07:30:30;;;;;;;23.45;8.65;;;;;;;0.35;83.82;100629.33;2148176;81;21492;-83
2022/02/03 07:33:32;;;;;;;21.25;6.85;;;;;;;0.41;83.91;100625.88;2149723;81;21002;-86
2022/02/03 07:36:33;;;;;;;22.80;9.18;;;;;;;0.44;83.71;100619.17;2150017;81;21081;-82
2022/02/03 07:39:36;;;;;;;24.12;8.68;;;;;;;0.46;83.70;100624.32;2148922;81;21005;-82
2022/02/03 07:42:39;;;;;;;23.02;8.58;;;;;;;0.50;83.69;100614.05;2154267;81;21065;-82
2022/02/03 07:45:40;;;;;;;20.00;7.47;;;;;;;0.55;83.65;100622.94;2146767;81;21120;-82
2022/02/03 07:48:41;;;;;;;19.17;6.70;;;;;;;0.61;83.67;100616.05;2148147;81;21048;-81
2022/02/03 07:51:43;;;;;;;19.50;6.87;;;;;;;0.68;83.67;100621.30;2144876;81;21026;-81
2022/02/03 07:54:44;;;;;;;21.50;7.20;;;;;;;0.77;83.63;100615.52;2150159;81;21104;-81
2022/02/03 07:57:49;;;;;;;20.02;6.55;;;;;;;0.84;83.52;100611.58;2151671;81;21516;-82
2022/02/03 08:00:50;;;;;;;14.18;5.85;;;;;;;0.95;83.46;100615.33;2151007;81;21024;-84
2022/02/03 08:03:52;;;;;;;21.57;6.70;;;;;;;1.02;83.41;100604.42;2148404;81;20978;-81
2022/02/03 08:06:53;;;;;;;20.45;6.67;;;;;;;1.10;83.24;100596.12;2147198;81;21012;-83
2022/02/03 08:09:59;;;;;;;19.20;6.75;;;;;;;1.17;83.19;100588.73;2153589;81;20974;-81
2022/02/03 08:13:01;;;;;;;23.07;7.33;;;;;;;1.23;83.05;100585.25;2149697;81;21054;-81
2022/02/03 08:16:18;;;;;;;20.75;7.30;;;;;;;1.25;82.96;100571.63;2145523;81;21101;-82
2022/02/03 08:19:33;;;;;;;26.42;8.25;;;;;;;1.31;82.91;100569.09;2142382;81;21036;-84
2022/02/03 08:22:32;;;;;;;23.40;8.05;;;;;;;1.47;83.07;100562.44;2146599;81;21455;-80
2022/02/03 08:25:31;;;;;;;24.02;8.13;;;;;;;1.79;82.92;100553.34;2148882;80;21779;-83
2022/02/03 08:28:55;;;;;;;20.43;8.25;;;;;;;1.97;82.80;100546.08;2150983;81;21526;-81
2022/02/03 08:31:41;;;;;;;24.40;9.58;;;;;;;2.28;82.83;100536.19;2147496;81;21813;-82
2022/02/03 08:34:56;;;;;;;21.97;8.00;;;;;;;2.84;82.95;100527.50;2150080;81;21021;-82
2022/02/03 08:38:44;;;;;;;22.85;8.58;;;;;;;3.39;82.04;100525.38;2150160;81;21545;-80
2022/02/03 08:43:54;;;;;;;18.52;7.90;;;;;;;3.39;80.37;100537.67;2152452;81;21256;-81
2022/02/03 08:46:56;;;;;;;23.22;7.28;;;;;;;3.29;80.16;100526.98;2147008;80;21043;-80
2022/02/03 08:49:57;;;;;;;23.18;6.45;;;;;;;3.19;79.60;100535.16;2152062;81;20978;-81
2022/02/03 08:53:07;;;;;;;16.77;5.62;;;;;;;3.23;79.90;100532.67;2148233;81;21026;-82
2022/02/03 08:59:25;;;;;;;19.02;6.55;;;;;;;4.01;80.16;100522.55;2146672;81;21041;-83
2022/02/03 09:37:01;;;;;;;21.20;5.22;;;;;;;7.13;73.47;100486.70;2119045;81;21060;-81
2022/02/03 09:53:28;;;;;;;17.35;5.08;;;;;;;7.73;70.87;100478.20;2143887;81;21026;-81
2022/02/03 09:59:44;;;;;;;18.10;5.75;;;;;;;7.66;68.96;100469.64;2148058;81;21042;-80
2022/02/03 10:02:40;;;;;;;18.60;6.08;;;;;;;7.52;69.35;100478.84;2144480;81;21548;-83
2022/02/03 10:05:59;;;;;;;17.65;5.42;;;;;;;7.35;69.08;100473.75;2123190;81;21065;-81
2022/02/03 10:08:56;;;;;;;16.27;5.22;;;;;;;7.32;69.54;100474.00;2141416;81;21296;-79
2022/02/03 10:12:00;;;;;;;24.45;8.50;;;;;;;7.40;69.39;100474.15;2143390;81;21588;-80
2022/02/03 10:15:04;;;;;;;30.97;11.28;;;;;;;7.35;68.90;100464.52;2123244;81;20979;-80
2022/02/03 10:18:25;;;;;;;14.13;6.42;;;;;;;7.49;68.59;100462.78;2123054;81;21509;-81
2022/02/03 10:21:28;;;;;;;17.98;6.47;;;;;;;7.64;67.86;100452.14;2119958;81;21022;-81
2022/02/03 10:24:35;;;;;;;13.48;5.70;;;;;;;7.73;67.69;100443.03;2146946;81;21071;-81
2022/02/03 10:27:39;;;;;;;18.77;6.05;;;;;;;7.81;67.43;100446.64;2145634;81;21508;-82
2022/02/03 10:30:53;;;;;;;25.12;12.18;;;;;;;8.00;67.49;100431.25;2144290;81;21008;-80
2022/02/03 10:34:10;;;;;;;33.80;16.57;;;;;;;8.04;66.53;100422.54;2123053;81;21094;-81
2022/02/03 10:37:27;;;;;;;25.05;9.88;;;;;;;8.05;66.19;100424.20;2145768;81;21557;-81
2022/02/03 10:40:49;;;;;;;21.95;8.68;;;;;;;8.13;66.14;100422.99;2147039;81;21028;-80
2022/02/03 10:47:22;;;;;;;18.50;6.12;;;;;;;8.31;66.09;100416.48;2151349;81;21022;-82
2022/02/03 10:53:39;;;;;;;15.85;5.30;;;;;;;8.36;65.09;100414.22;2147359;81;21080;-82
2022/02/03 11:03:41;;;;;;;14.68;5.85;;;;;;;8.38;64.81;100401.69;2152477;81;20966;-80
2022/02/03 11:09:55;;;;;;;17.90;5.83;;;;;;;8.77;64.72;100396.74;2116008;81;21490;-80
2022/02/03 11:12:53;;;;;;;18.10;6.40;;;;;;;8.72;63.86;100396.68;2149301;81;21022;-82
2022/02/03 11:15:55;;;;;;;18.62;8.95;;;;;;;8.68;63.17;100391.84;2151111;81;21373;-82
2022/02/03 11:19:02;;;;;;;17.05;7.15;;;;;;;8.56;62.72;100391.22;2122347;81;21017;-85
2022/02/03 11:22:07;;;;;;;13.98;5.22;;;;;;;8.48;62.39;100385.83;2146104;81;21950;-85
2022/02/03 11:25:18;;;;;;;14.25;6.80;;;;;;;8.34;62.21;100387.11;2151360;81;21334;-81
2022/02/03 11:48:57;;;;;;;9.63;4.35;;;;;;;8.14;60.29;100374.92;2146108;80;21042;-82
2022/02/03 11:56:09;;;;;;;14.87;5.42;;;;;;;8.08;61.14;100357.83;2160270;80;21037;-81
2022/02/03 12:04:54;;;;;;;14.60;5.20;;;;;;;8.21;61.31;100344.30;2155071;81;21018;-83
2022/02/03 12:17:27;;;;;;;11.97;5.50;;;;;;;8.21;60.04;100340.34;2121852;81;21014;-84
2022/02/03 12:20:49;;;;;;;;;;;;;;;8.12;60.78;100337.25;2147361;81;21050;-83
2022/02/03 12:27:22;;;;;;;12.88;3.90;;;;;;;7.91;60.50;100327.71;2152599;81;20984;-82
2022/02/03 12:30:04;;;;;;;11.57;4.30;;;;;;;7.78;60.29;100316.16;2142053;81;21584;-80
2022/02/03 12:37:00;;;;;;;14.25;4.78;;;;;;;7.73;60.28;100313.61;2140417;81;21579;-82
2022/02/03 12:39:59;;;;;;;10.63;4.85;;;;;;;7.68;60.62;100309.23;2148558;81;21018;-81
2022/02/03 12:42:57;;;;;;;8.20;3.80;;;;;;;7.61;60.64;100305.02;2150252;81;20986;-84
2022/02/03 12:45:57;;;;;;;13.28;5.42;;;;;;;7.56;60.72;100291.41;2146389;81;21663;-83
2022/02/03 12:49:01;;;;;;;13.68;4.87;;;;;;;7.56;61.17;100292.23;2122816;81;21528;-83
2022/02/03 12:52:24;;;;;;;7.90;3.95;;;;;;;7.53;60.94;100281.96;2146862;81;21002;-82
2022/02/03 12:55:41;;;;;;;10.03;4.75;;;;;;;7.49;61.04;100285.88;2147520;81;21014;-79
2022/02/03 12:58:45;;;;;;;11.28;4.15;;;;;;;7.40;61.07;100279.65;2148173;81;21044;-83
2022/02/03 13:01:46;;;;;;;10.65;4.37;;;;;;;7.44;61.21;100280.68;2155485;81;21049;-82
2022/02/03 13:04:48;;;;;;;11.75;4.78;;;;;;;7.40;60.76;100269.09;2143007;81;21053;-82
2022/02/03 13:07:55;;;;;;;11.12;4.62;;;;;;;7.40;61.43;100266.91;2147845;81;21515;-85
2022/02/03 13:12:01;;;;;;;13.62;4.45;;;;;;;7.39;61.15;100270.05;2144136;81;20986;-83
2022/02/03 13:14:28;;;;;;;11.33;4.17;;;;;;;7.36;61.63;100263.73;2120674;80;21085;-82
2022/02/03 13:17:31;;;;;;;16.30;5.47;;;;;;;7.38;61.51;100260.47;2150694;81;21037;-83
2022/02/03 13:20:37;;;;;;;10.68;4.35;;;;;;;7.36;61.36;100253.66;2148301;81;21013;-85
2022/02/03 13:23:37;;;;;;;15.05;5.28;;;;;;;7.34;61.59;100250.33;2147435;81;21105;-81
2022/02/03 13:26:37;;;;;;;10.85;3.87;;;;;;;7.38;61.59;100252.55;2151980;81;20974;-84
2022/02/03 13:29:56;;;;;;;12.33;4.50;;;;;;;7.38;61.67;100255.19;2154689;81;20978;-82
2022/02/03 13:32:50;;;;;;;11.22;4.55;;;;;;;7.35;61.64;100252.02;2146943;81;21539;-82
2022/02/03 13:35:54;;;;;;;10.05;4.33;;;;;;;7.36;61.97;100253.66;2151888;81;21033;-82
2022/02/03 13:39:02;;;;;;;12.85;4.30;;;;;;;7.34;61.39;100260.39;2150633;81;21017;-84
2022/02/03 13:42:10;;;;;;;11.22;5.62;;;;;;;7.27;61.42;100259.31;2143774;81;21530;-82
2022/02/03 13:45:13;;;;;;;20.32;8.00;;;;;;;7.24;61.47;100253.50;2150822;81;21511;-83
2022/02/03 13:48:20;;;;;;;14.30;5.35;;;;;;;7.24;61.82;100248.22;2148385;81;21024;-83
2022/02/03 13:51:31;;;;;;;12.98;4.03;;;;;;;7.19;61.12;100243.35;2150764;81;21053;-83
2022/02/03 14:10:26;;;;;;;10.88;4.45;;;;;;;7.12;61.55;100247.52;2152506;81;21064;-84
2022/02/03 14:15:33;;;;;;;10.88;3.92;;;;;;;6.73;61.43;100236.53;2154617;81;21008;-82
2022/02/03 14:27:58;;;;;;;7.30;3.70;;;;;;;6.53;61.65;100229.56;2084026;84;21077;-80
2022/02/03 14:31:06;;;;;;;7.33;3.75;;;;;;;6.49;61.48;100226.87;2079007;84;21549;-81
2022/02/03 14:34:11;;;;;;;11.78;3.37;;;;;;;6.45;61.32;100229.44;2145259;81;20994;-81
2022/02/03 14:37:40;;;;;;;9.90;4.55;;;;;;;6.40;61.47;100226.38;2154081;81;21565;-81
2022/02/03 14:40:51;;;;;;;14.10;4.67;;;;;;;6.36;61.41;100222.34;2149540;81;21557;-83
2022/02/03 14:43:37;;;;;;;13.03;5.62;;;;;;;6.26;61.29;100213.11;2149735;81;21013;-80
2022/02/03 14:46:38;;;;;;;19.30;6.92;;;;;;;6.21;61.53;100212.69;2151365;81;21486;-84
2022/02/03 14:49:43;;;;;;;13.20;6.65;;;;;;;6.15;61.47;100210.59;2151121;81;21065;-82
2022/02/03 14:52:55;;;;;;;12.30;5.40;;;;;;;6.12;61.68;100212.19;2153572;81;21013;-83
2022/02/03 14:59:09;;;;;;;13.90;4.55;;;;;;;6.09;61.99;100204.56;2154077;81;21516;-84
2022/02/03 15:02:10;;;;;;;13.93;4.97;;;;;;;5.96;61.73;100214.84;2148777;80;21003;-84
2022/02/03 15:05:22;;;;;;;13.03;4.33;;;;;;;5.82;61.92;100196.75;2149415;80;21657;-82
2022/02/03 15:08:23;;;;;;;12.05;4.28;;;;;;;5.75;62.04;100201.73;2150120;81;21535;-84
2022/02/03 15:11:27;;;;;;;9.35;4.58;;;;;;;5.68;62.09;100193.17;2145415;81;21002;-80
2022/02/03 15:14:22;;;;;;;19.07;5.20;;;;;;;5.59;61.75;100185.59;2155436;81;20986;-84
2022/02/03 15:17:24;;;;;;;19.17;6.20;;;;;;;5.54;62.21;100187.78;2155650;81;21045;-81
2022/02/03 15:20:25;;;;;;;12.15;4.90;;;;;;;5.48;62.31;100179.94;2156648;81;21200;-87
2022/02/03 15:23:27;;;;;;;19.40;6.90;;;;;;;5.42;62.19;100167.31;2157547;81;21007;-84
2022/02/03 15:26:29;;;;;;;29.60;7.75;;;;;;;5.36;62.29;100163.41;2152565;81;20994;-83
2022/02/03 15:29:31;;;;;;;21.95;6.87;;;;;;;5.28;62.16;100162.41;2149357;81;21000;-80
2022/02/03 15:32:38;;;;;;;17.73;5.00;;;;;;;5.21;62.45;100159.48;2144972;81;20979;-82
2022/02/03 15:35:41;;;;;;;18.32;5.45;;;;;;;5.17;62.78;100162.00;2152802;81;21014;-81
2022/02/03 15:38:45;;;;;;;21.12;7.70;;;;;;;5.11;62.74;100158.59;2151455;81;20994;-82
2022/02/03 15:41:43;;;;;;;17.17;6.45;;;;;;;5.03;62.84;100161.03;2154528;81;21020;-82
2022/02/03 15:44:49;;;;;;;16.80;5.87;;;;;;;4.97;62.96;100153.18;2145227;81;21434;-80
2022/02/03 15:47:57;;;;;;;15.25;5.25;;;;;;;4.90;63.11;100154.19;2145836;81;21233;-80
2022/02/03 16:00:58;;;;;;;23.30;5.90;;;;;;;4.70;63.83;100144.03;2152579;81;21552;-79
2022/02/03 16:03:44;;;;;;;19.10;6.53;;;;;;;4.67;64.03;100136.41;2119763;81;21653;-80
2022/02/03 16:22:58;;;;;;;27.70;7.97;;;;;;;4.61;64.94;100121.61;2150152;81;21032;-82
2022/02/03 16:26:36;;;;;;;19.85;9.40;;;;;;;4.59;64.98;100128.78;2157625;81;21022;-83
2022/02/03 16:52:39;;;;;;;15.68;5.67;;;;;;;4.42;65.77;100107.40;2151839;81;21591;-82
2022/02/03 16:55:39;;;;;;;19.02;6.00;;;;;;;4.42;65.87;100107.40;2145738;81;21081;-79
2022/02/03 16:58:42;;;;;;;24.57;8.03;;;;;;;4.45;65.93;100112.39;2147784;81;21041;-80
2022/02/03 17:01:44;;;;;;;22.05;7.47;;;;;;;4.48;66.07;100111.31;2148382;81;21019;-81
2022/02/03 17:04:46;;;;;;;23.73;9.35;;;;;;;4.51;66.06;100112.85;2154439;81;21010;-82
2022/02/03 17:07:47;;;;;;;26.30;9.95;;;;;;;4.50;66.16;100106.73;2144559;81;21017;-83
2022/02/03 17:10:49;;;;;;;21.45;7.90;;;;;;;4.48;66.32;100101.63;2145810;81;21347;-80
2022/02/03 17:13:54;;;;;;;28.07;8.70;;;;;;;4.47;66.38;100099.94;2153779;80;21093;-82
2022/02/03 17:16:55;;;;;;;23.98;7.97;;;;;;;4.45;66.38;100095.31;2142027;81;21342;-80
2022/02/03 17:19:57;;;;;;;29.35;9.58;;;;;;;4.44;66.45;100088.86;2154858;81;21013;-81
2022/02/03 17:22:59;;;;;;;23.60;8.03;;;;;;;4.40;66.55;100086.98;2146684;81;21040;-82
2022/02/03 17:26:16;;;;;;;28.30;10.23;;;;;;;4.37;66.70;100095.13;2154547;81;21500;-85
2022/02/03 17:29:30;;;;;;;21.42;8.95;;;;;;;4.31;66.79;100091.69;2101448;83;21912;-81
2022/02/03 18:08:51;;;;;;;27.07;9.65;;;;;;;3.98;70.35;100076.42;2094363;83;21018;-81
2022/02/03 18:17:08;;;;;;;26.90;10.53;;;;;;;3.94;70.68;100065.84;2099536;83;21022;-82
2022/02/03 18:51:16;;;;;;;18.95;7.17;;;;;;;3.64;73.81;100039.45;2099625;83;21526;-82
2022/02/03 18:54:24;;;;;;;19.45;6.50;;;;;;;3.56;74.04;100039.58;2098324;83;21060;-82
2022/02/03 19:10:46;;;;;;;19.13;7.43;;;;;;;3.44;75.05;100036.64;2100263;83;21044;-83
2022/02/03 19:26:13;;;;;;;16.60;7.03;;;;;;;3.49;75.56;100041.05;2093180;83;21038;-80
2022/02/03 19:29:12;;;;;;;18.95;7.47;;;;;;;3.47;75.69;100038.19;2093075;83;21069;-82
2022/02/03 20:05:04;;;;;;;18.00;7.12;;;;;;;3.51;76.90;100025.17;2097865;83;21040;-80
2022/02/03 20:08:05;;;;;;;24.77;8.43;;;;;;;3.54;77.03;100024.44;2095502;83;20983;-80
2022/02/03 20:11:01;;;;;;;20.32;7.67;;;;;;;3.55;77.09;100027.43;2082305;83;21058;-80
2022/02/03 20:14:12;;;;;;;18.00;7.40;;;;;;;3.57;77.14;100024.18;2101584;83;21021;-78
2022/02/03 20:17:09;;;;;;;16.15;7.67;;;;;;;3.57;77.20;100020.73;2098076;83;21003;-81
2022/02/03 20:20:11;;;;;;;20.82;7.28;;;;;;;3.55;77.25;100019.56;2099002;83;21082;-82
2022/02/03 20:23:17;;;;;;;22.90;8.40;;;;;;;3.54;77.32;100017.88;2104945;82;20979;-83
2022/02/03 20:26:18;;;;;;;17.70;7.40;;;;;;;3.52;77.41;100021.13;2102495;83;21051;-81
2022/02/03 20:29:20;;;;;;;22.93;8.88;;;;;;;3.52;77.52;100017.19;2102894;83;21481;-81
2022/02/03 20:32:21;;;;;;;21.75;9.35;;;;;;;3.54;77.62;100011.31;2098841;83;21516;-82
2022/02/03 20:35:26;;;;;;;24.87;8.83;;;;;;;3.55;77.67;100010.37;2101149;83;21068;-82
2022/02/03 20:38:28;;;;;;;20.95;8.48;;;;;;;3.52;77.75;100011.94;2103727;83;21121;-80
2022/02/03 20:41:29;;;;;;;19.25;7.95;;;;;;;3.53;77.98;100009.66;2102342;83;21029;-82
2022/02/03 20:44:31;;;;;;;25.60;8.93;;;;;;;3.50;78.00;99999.42;2099642;83;21020;-82
2022/02/03 20:47:33;;;;;;;17.65;8.13;;;;;;;3.53;78.08;100002.27;2104528;83;21525;-80
2022/02/03 20:50:40;;;;;;;24.18;7.92;;;;;;;3.56;78.16;100003.33;2101813;83;21018;-83
2022/02/03 20:53:43;;;;;;;26.40;9.03;;;;;;;3.54;78.22;99994.27;2083309;83;21035;-81
2022/02/03 20:56:46;;;;;;;26.70;9.65;;;;;;;3.53;78.31;99993.09;2106511;83;21845;-82
2022/02/03 21:03:04;;;;;;;20.50;9.10;;;;;;;3.45;78.62;99991.08;2116724;83;21075;-82
2022/02/03 21:06:02;;;;;;;21.55;9.20;;;;;;;3.40;78.66;99995.86;2071437;84;21677;-81
2022/02/03 21:09:06;;;;;;;26.17;9.15;;;;;;;3.35;78.71;99988.38;2101005;83;21027;-82
2022/02/03 21:12:09;;;;;;;22.40;8.55;;;;;;;3.38;78.93;99985.99;2092846;83;21082;-81
2022/02/03 21:15:13;;;;;;;22.98;8.40;;;;;;;3.40;79.17;99984.54;2096077;83;21637;-81
2022/02/03 21:18:17;;;;;;;20.90;9.23;;;;;;;3.40;79.03;99985.37;2101759;83;21560;-82
2022/02/03 21:21:18;;;;;;;19.17;7.53;;;;;;;3.43;79.19;99975.94;2098476;83;21040;-80
2022/02/03 21:24:19;;;;;;;13.95;6.17;;;;;;;3.41;79.23;99970.00;2098880;83;21015;-79
2022/02/03 21:27:20;;;;;;;21.35;7.40;;;;;;;3.41;79.28;99966.52;2101511;83;21068;-81
2022/02/03 21:30:23;;;;;;;17.80;7.75;;;;;;;3.41;79.42;99960.83;2096774;83;21020;-82
2022/02/03 21:33:46;;;;;;;16.42;7.40;;;;;;;3.41;79.33;99957.34;2098935;83;21538;-80
2022/02/03 21:36:36;;;;;;;26.70;9.55;;;;;;;3.46;79.40;99961.73;2097812;83;21062;-80
2022/02/03 21:39:33;;;;;;;22.65;8.65;;;;;;;3.47;79.46;99956.88;2098663;83;20976;-82
2022/02/03 21:42:35;;;;;;;19.90;8.00;;;;;;;3.47;79.51;99957.70;2097337;83;21087;-81
2022/02/03 21:45:37;;;;;;;20.15;8.40;;;;;;;3.48;79.57;99958.04;2098670;83;21028;-82
2022/02/03 21:48:42;;;;;;;17.90;7.47;;;;;;;3.50;79.62;99957.44;2100533;83;21059;-82
2022/02/03 21:51:45;;;;;;;15.70;6.60;;;;;;;3.48;79.67;99954.11;2099547;83;21028;-81
2022/02/03 21:54:48;;;;;;;19.42;7.87;;;;;;;3.45;79.67;99958.78;2099187;83;21579;-81
2022/02/03 21:57:53;;;;;;;18.90;8.03;;;;;;;3.41;79.72;99950.78;2095399;83;21065;-81
2022/02/03 22:00:55;;;;;;;17.92;7.45;;;;;;;3.40;79.87;99948.64;2098317;83;21015;-82
2022/02/03 22:03:57;;;;;;;19.25;8.15;;;;;;;3.40;80.11;99939.47;2105077;83;21061;-79
2022/02/03 22:06:58;;;;;;;19.25;8.05;;;;;;;3.40;79.99;99948.64;2106460;83;21056;-82
2022/02/03 22:10:00;;;;;;;22.42;8.88;;;;;;;3.43;80.00;99949.70;2105024;83;20999;-82
2022/02/03 22:13:01;;;;;;;19.65;8.08;;;;;;;3.44;80.06;99951.39;2096340;83;21003;-79
2022/02/03 22:16:10;;;;;;;21.57;8.60;;;;;;;3.48;80.11;99944.09;2100258;83;22117;-79
2022/02/03 22:19:10;;;;;;;17.55;7.95;;;;;;;3.52;80.14;99938.94;2096941;83;21048;-81
2022/02/03 22:22:31;;;;;;;16.35;7.62;;;;;;;3.57;80.22;99937.59;2103456;83;21661;-81
2022/02/03 22:25:59;;;;;;;20.52;8.70;;;;;;;3.63;80.20;99940.20;2099866;83;21871;-80
2022/02/03 22:50:58;;;;;;;21.93;10.43;;;;;;;3.73;80.36;99937.66;2087064;84;21025;-82
2022/02/03 22:54:01;;;;;;;23.80;10.60;;;;;;;3.72;80.32;99945.20;2113653;83;20983;-83
2022/02/03 22:57:03;;;;;;;23.98;10.10;;;;;;;3.72;80.37;99941.26;2103161;83;21031;-84
2022/02/03 23:00:17;;;;;;;22.90;9.18;;;;;;;3.72;80.41;99937.32;2101476;83;21048;-83
2022/02/03 23:03:14;;;;;;;24.82;10.10;;;;;;;3.72;80.48;99946.51;2100654;83;21071;-79
2022/02/03 23:06:16;;;;;;;19.60;7.97;;;;;;;3.71;80.53;99938.27;2100894;83;21043;-81
2022/02/03 23:09:32;;;;;;;19.70;8.25;;;;;;;3.72;80.61;99946.02;2099936;83;21592;-83
2022/02/03 23:15:58;;;;;;;21.33;10.03;;;;;;;3.76;80.68;99940.03;2097081;83;21016;-82
2022/02/03 23:22:08;;;;;;;17.50;7.53;;;;;;;3.75;80.71;99931.81;2100311;83;21550;-82
2022/02/03 23:24:57;;;;;;;19.17;8.35;;;;;;;3.75;80.72;99926.08;2100483;83;21511;-83
2022/02/03 23:28:33;;;;;;;14.45;6.65;;;;;;;3.72;80.76;99915.84;2102284;83;21411;-82
2022/02/03 23:31:07;;;;;;;17.98;8.10;;;;;;;3.70;80.80;99918.23;2082730;83;21104;-83
2022/02/03 23:34:09;;;;;;;15.70;7.50;;;;;;;3.69;80.83;99916.55;2096964;83;21507;-83
2022/02/03 23:37:11;;;;;;;19.23;7.37;;;;;;;3.70;80.88;99920.86;2101916;83;21026;-81
2022/02/03 23:40:27;;;;;;;14.35;6.05;;;;;;;3.71;80.99;99925.14;2110736;82;21503;-83
2022/02/03 23:50:28;;;;;;;13.40;6.47;;;;;;;3.75;81.03;99913.45;2099131;83;21068;-81
